Time;durP1;ratioP1;P1;durP2;ratioP2;P2;SDS_P1;SDS_P2;PMS_P1;PMS_P2;Temp;Humidity;BMP_temperature;BMP_pressure;BME280_temperature;BME280_humidity;BME280_pressure;Samples;Min_cycle;Max_cycle;Signal;HPM_P1;HPM_P2
2022/07/27 00:01:38;;;;;;;5.40;1.52;;;;;;;14.50;100.00;101915.00;6212266;23;20202;-75
2022/07/27 00:04:06;;;;;;;5.82;1.30;;;;;;;14.49;100.00;101921.16;6188674;23;20013;-75
2022/07/27 00:06:36;;;;;;;7.43;1.73;;;;;;;14.48;100.00;101915.84;6193742;23;20499;-75
2022/07/27 00:09:04;;;;;;;8.38;1.40;;;;;;;14.48;100.00;101915.84;6188560;23;20021;-76
2022/07/27 00:11:32;;;;;;;4.35;1.52;;;;;;;14.47;100.00;101914.09;6183141;23;20013;-75
2022/07/27 00:14:01;;;;;;;5.70;1.60;;;;;;;14.44;100.00;101912.31;6213541;23;20450;-76
2022/07/27 00:16:29;;;;;;;5.50;1.23;;;;;;;14.43;100.00;101911.41;6236632;23;20027;-76
2022/07/27 00:18:58;;;;;;;5.40;1.70;;;;;;;14.42;100.00;101917.63;6204012;23;20025;-76
2022/07/27 00:21:27;;;;;;;4.53;1.35;;;;;;;14.39;100.00;101912.28;6185508;23;20020;-76
2022/07/27 00:23:55;;;;;;;7.82;1.33;;;;;;;14.40;100.00;101914.09;6195949;23;20020;-76
2022/07/27 00:26:24;;;;;;;5.07;1.80;;;;;;;14.39;100.00;101917.59;6185060;23;20249;-76
2022/07/27 00:28:52;;;;;;;4.47;1.50;;;;;;;14.37;100.00;101919.34;6154749;23;20028;-76
2022/07/27 00:31:20;;;;;;;3.63;1.55;;;;;;;14.36;100.00;101911.41;6209260;23;20208;-76
2022/07/27 00:33:49;;;;;;;5.95;1.35;;;;;;;14.33;100.00;101917.56;6214770;23;20024;-76
2022/07/27 00:36:18;;;;;;;6.63;1.55;;;;;;;14.29;100.00;101915.78;6149553;23;20021;-76
2022/07/27 00:38:46;;;;;;;3.15;1.63;;;;;;;14.26;100.00;101914.88;6194878;23;20017;-76
2022/07/27 00:41:14;;;;;;;4.38;1.30;;;;;;;14.21;100.00;101917.50;6210071;23;20024;-76
2022/07/27 00:43:54;;;;;;;7.28;1.33;;;;;;;14.19;100.00;101916.59;6213770;23;20023;-76
2022/07/27 00:46:23;;;;;;;2.35;1.00;;;;;;;14.15;100.00;101917.47;6173313;23;20320;-76
2022/07/27 00:48:52;;;;;;;9.65;1.77;;;;;;;14.12;100.00;101920.09;6214548;23;20376;-76
2022/07/27 00:51:22;;;;;;;3.10;1.42;;;;;;;14.09;100.00;101914.81;6208795;23;20206;-76
2022/07/27 00:53:52;;;;;;;5.25;1.42;;;;;;;14.06;100.00;101922.72;6194686;23;20032;-77
2022/07/27 00:56:21;;;;;;;4.07;1.58;;;;;;;14.04;100.00;101918.31;6174421;23;20021;-77
2022/07/27 00:58:52;;;;;;;2.65;1.20;;;;;;;14.00;100.00;101924.44;6179576;23;20025;-75
2022/07/27 01:01:21;;;;;;;6.95;1.90;;;;;;;13.98;100.00;101925.31;6209777;23;20021;-78
2022/07/27 01:03:50;;;;;;;3.65;1.33;;;;;;;13.94;100.00;101921.78;6211635;23;20020;-81
2022/07/27 01:06:18;;;;;;;5.75;1.63;;;;;;;13.90;100.00;101916.44;6181677;23;20021;-83
2022/07/27 01:09:55;;;;;;;4.55;1.40;;;;;;;13.88;100.00;101918.22;6195439;23;20047;-83
2022/07/27 01:11:46;;;;;;;7.68;1.90;;;;;;;13.85;100.00;101929.66;6185308;23;20025;-82
2022/07/27 01:14:15;;;;;;;5.53;1.55;;;;;;;13.80;100.00;101916.38;6193543;23;20042;-83
2022/07/27 01:16:44;;;;;;;1.83;1.10;;;;;;;13.79;100.00;101929.63;6138596;23;20016;-82
2022/07/27 01:19:14;;;;;;;4.05;1.35;;;;;;;13.77;100.00;101931.38;6217011;23;20021;-82
2022/07/27 01:21:43;;;;;;;3.45;1.52;;;;;;;13.75;100.00;101920.75;6192891;23;20020;-82
2022/07/27 01:24:13;;;;;;;5.97;1.45;;;;;;;13.74;100.00;101919.00;6152377;23;20207;-82
2022/07/27 01:26:42;;;;;;;6.72;1.30;;;;;;;13.75;100.00;101919.88;6121279;23;20031;-82
2022/07/27 01:29:10;;;;;;;6.22;1.50;;;;;;;13.76;100.00;101922.53;6133068;23;20017;-83
2022/07/27 01:31:40;;;;;;;2.85;1.70;;;;;;;13.77;100.00;101923.44;6173751;23;20039;-83
2022/07/27 01:34:08;;;;;;;7.43;1.55;;;;;;;13.74;100.00;101918.09;6183895;23;20192;-83
2022/07/27 01:36:37;;;;;;;6.55;2.08;;;;;;;13.73;100.00;101916.34;6165763;23;20020;-83
2022/07/27 01:39:05;;;;;;;6.47;1.58;;;;;;;13.75;100.00;101925.19;6168400;23;20031;-83
2022/07/27 01:41:34;;;;;;;5.90;1.40;;;;;;;13.75;100.00;101918.09;6123164;23;20028;-82
2022/07/27 01:44:03;;;;;;;2.85;1.75;;;;;;;13.77;100.00;101911.06;6194533;23;20016;-83
2022/07/27 01:46:31;;;;;;;4.78;1.30;;;;;;;13.77;100.00;101907.53;6197259;23;20469;-83
2022/07/27 01:49:00;;;;;;;8.48;1.65;;;;;;;13.80;100.00;101907.56;6137017;23;20456;-82
2022/07/27 01:51:29;;;;;;;4.32;1.83;;;;;;;13.83;100.00;101903.13;6195516;23;20028;-82
2022/07/27 01:54:00;;;;;;;4.07;1.40;;;;;;;13.86;100.00;101904.06;6211987;23;20477;-82
2022/07/27 01:56:28;;;;;;;4.03;1.35;;;;;;;13.89;100.00;101909.38;6157796;23;20648;-82
2022/07/27 01:58:57;;;;;;;8.13;1.30;;;;;;;13.90;100.00;101903.19;6169692;23;20028;-83
2022/07/27 02:01:26;;;;;;;5.70;1.55;;;;;;;13.91;100.00;101905.84;6187621;23;20027;-82
2022/07/27 02:03:55;;;;;;;3.45;1.30;;;;;;;13.92;100.00;101899.69;6172634;23;20025;-82
2022/07/27 02:06:23;;;;;;;3.60;1.30;;;;;;;13.94;100.00;101897.03;6163240;23;20149;-82
2022/07/27 02:08:51;;;;;;;2.88;1.10;;;;;;;13.96;100.00;101893.50;6174212;23;20464;-83
2022/07/27 02:14:07;;;;;;;4.65;1.30;;;;;;;13.96;100.00;101893.50;6163615;23;20023;-83
2022/07/27 02:16:36;;;;;;;5.60;1.23;;;;;;;13.98;100.00;101890.88;6165837;23;20036;-82
2022/07/27 02:19:05;;;;;;;5.22;1.33;;;;;;;13.98;100.00;101888.22;6168355;23;20020;-83
2022/07/27 02:21:36;;;;;;;5.72;1.70;;;;;;;13.98;100.00;101886.44;6213592;23;20020;-82
2022/07/27 02:24:05;;;;;;;6.28;1.10;;;;;;;13.99;100.00;101885.59;6196276;23;20016;-82
2022/07/27 02:26:33;;;;;;;7.03;1.30;;;;;;;14.00;100.00;101890.00;6174525;23;20350;-83
2022/07/27 02:29:02;;;;;;;6.18;1.35;;;;;;;14.00;100.00;101892.66;6162256;23;20028;-83
2022/07/27 02:31:30;;;;;;;4.28;1.30;;;;;;;14.01;100.00;101896.22;6170577;23;20024;-83
2022/07/27 02:34:00;;;;;;;1.73;1.10;;;;;;;14.00;100.00;101897.94;6219627;23;20013;-82
2022/07/27 02:36:29;;;;;;;2.97;1.30;;;;;;;13.99;100.00;101904.16;6170765;23;20023;-81
2022/07/27 02:38:57;;;;;;;3.63;1.58;;;;;;;13.98;100.00;101899.72;6197367;23;20025;-83
2022/07/27 02:41:26;;;;;;;8.65;1.95;;;;;;;13.94;100.00;101900.56;6197455;23;20016;-82
2022/07/27 02:43:55;;;;;;;2.20;1.25;;;;;;;13.92;100.00;101899.69;6209285;23;20017;-83
2022/07/27 02:46:24;;;;;;;6.28;1.45;;;;;;;13.91;100.00;101903.19;6247170;23;20020;-82
2022/07/27 02:48:53;;;;;;;5.75;1.50;;;;;;;13.90;100.00;101897.91;6198524;23;20027;-84
2022/07/27 02:51:21;;;;;;;3.13;1.52;;;;;;;13.86;100.00;101897.00;6193117;23;20113;-82
2022/07/27 02:53:50;;;;;;;3.88;1.20;;;;;;;13.82;100.00;101898.75;6213707;23;20038;-83
2022/07/27 02:56:19;;;;;;;4.30;1.08;;;;;;;13.77;100.00;101895.16;6220408;23;20051;-83
2022/07/27 02:58:54;;;;;;;5.85;1.48;;;;;;;13.71;100.00;101904.84;6165044;23;20021;-83
2022/07/27 03:01:23;;;;;;;5.75;2.05;;;;;;;13.65;100.00;101900.38;6211177;23;20017;-82
2022/07/27 03:03:52;;;;;;;4.00;1.30;;;;;;;13.60;100.00;101904.75;6199040;23;20013;-82
2022/07/27 03:06:21;;;;;;;3.67;1.60;;;;;;;13.55;100.00;101910.00;6172364;23;20024;-82
2022/07/27 03:08:49;;;;;;;5.88;1.55;;;;;;;13.50;100.00;101901.16;6196528;23;20028;-83
2022/07/27 03:11:18;;;;;;;6.90;1.40;;;;;;;13.46;100.00;101899.38;6194672;23;20051;-83
2022/07/27 03:13:46;;;;;;;5.40;1.40;;;;;;;13.40;100.00;101908.16;6174513;23;20020;-82
2022/07/27 03:16:15;;;;;;;4.15;1.30;;;;;;;13.37;100.00;101907.22;6210060;23;20023;-82
2022/07/27 03:18:43;;;;;;;3.35;1.50;;;;;;;13.33;100.00;101898.38;6222399;23;20012;-82
2022/07/27 03:21:17;;;;;;;6.97;1.52;;;;;;;13.29;100.00;101895.63;6244944;23;20024;-82
2022/07/27 03:23:45;;;;;;;3.58;1.30;;;;;;;13.25;100.00;101902.66;6219807;23;20027;-82
2022/07/27 03:26:15;;;;;;;4.25;1.88;;;;;;;13.22;100.00;101905.28;6169622;23;20138;-82
2022/07/27 03:28:43;;;;;;;6.80;1.48;;;;;;;13.18;100.00;101906.16;6184924;23;20350;-82
2022/07/27 03:31:12;;;;;;;4.88;1.42;;;;;;;13.15;100.00;101909.63;6169745;23;20020;-82
2022/07/27 03:33:40;;;;;;;3.83;1.40;;;;;;;13.12;100.00;101912.25;6166538;23;20020;-82
2022/07/27 03:36:08;;;;;;;2.95;1.17;;;;;;;13.10;100.00;101906.06;6166553;23;20367;-84
2022/07/27 03:38:37;;;;;;;4.30;1.35;;;;;;;13.06;100.00;101909.53;6220736;23;20020;-82
2022/07/27 03:41:06;;;;;;;5.70;1.52;;;;;;;13.02;100.00;101918.31;6168691;23;20017;-83
2022/07/27 03:43:35;;;;;;;5.55;1.60;;;;;;;12.97;100.00;101917.41;6211312;23;20027;-82
2022/07/27 03:46:03;;;;;;;6.85;1.42;;;;;;;12.94;100.00;101918.25;6195674;23;20016;-85
2022/07/27 03:48:31;;;;;;;6.00;1.92;;;;;;;12.91;100.00;101917.31;6222140;23;20020;-81
2022/07/27 03:51:00;;;;;;;9.70;1.95;;;;;;;12.88;100.00;101915.53;6211797;23;20350;-82
2022/07/27 03:53:28;;;;;;;6.90;1.73;;;;;;;12.85;100.00;101924.34;6189158;23;20026;-82
2022/07/27 03:55:57;;;;;;;4.88;1.58;;;;;;;12.81;100.00;101911.94;6218943;23;20012;-82
2022/07/27 03:58:25;;;;;;;5.35;2.13;;;;;;;12.80;100.00;101919.88;6222730;23;20051;-82
2022/07/27 04:00:54;;;;;;;6.15;2.20;;;;;;;12.77;100.00;101910.13;6184072;23;20461;-82
2022/07/27 04:03:23;;;;;;;6.35;1.98;;;;;;;12.75;100.00;101925.09;6186280;23;20119;-83
2022/07/27 04:05:51;;;;;;;4.65;1.75;;;;;;;12.74;100.00;101915.41;6189399;23;20020;-84
2022/07/27 04:08:20;;;;;;;4.93;1.77;;;;;;;12.71;100.00;101912.72;6169965;23;20234;-83
2022/07/27 04:10:48;;;;;;;5.68;2.00;;;;;;;12.71;100.00;101922.41;6210975;23;20358;-83
2022/07/27 04:13:20;;;;;;;3.50;1.95;;;;;;;12.69;100.00;101925.03;6186256;23;20020;-82
2022/07/27 04:15:48;;;;;;;4.90;1.77;;;;;;;12.69;100.00;101914.44;6185482;23;20024;-84
2022/07/27 04:18:17;;;;;;;8.90;2.00;;;;;;;12.70;100.00;101921.50;6195302;23;20016;-82
2022/07/27 04:20:46;;;;;;;4.93;1.65;;;;;;;12.72;100.00;101922.44;6223480;23;20457;-82
2022/07/27 04:23:14;;;;;;;6.55;1.80;;;;;;;12.74;100.00;101918.03;6159649;23;20021;-83
2022/07/27 04:25:43;;;;;;;6.82;1.90;;;;;;;12.84;100.00;101919.91;6196426;23;20021;-82
2022/07/27 04:28:11;;;;;;;6.43;1.85;;;;;;;12.91;100.00;101925.25;6171186;23;20020;-82
2022/07/27 04:30:40;;;;;;;6.10;2.13;;;;;;;13.02;100.00;101931.56;6149645;23;20021;-82
2022/07/27 04:33:09;;;;;;;3.45;1.63;;;;;;;13.11;100.00;101928.13;6209858;23;20024;-82
2022/07/27 04:35:41;;;;;;;8.00;2.22;;;;;;;13.13;100.00;101923.72;6210247;23;20021;-82
2022/07/27 04:38:10;;;;;;;6.88;2.10;;;;;;;13.11;100.00;101929.00;6218344;23;20130;-82
2022/07/27 04:40:38;;;;;;;9.27;1.92;;;;;;;13.08;100.00;101934.28;6217905;23;20016;-82
2022/07/27 04:43:06;;;;;;;7.13;2.42;;;;;;;13.06;100.00;101931.63;6132543;23;20024;-82
2022/07/27 04:45:35;;;;;;;5.28;1.65;;;;;;;13.06;100.00;101938.63;6181204;23;20016;-82
2022/07/27 04:48:09;;;;;;;4.30;1.60;;;;;;;13.07;100.00;101943.97;6183388;23;20029;-83
2022/07/27 04:50:42;;;;;;;6.07;1.65;;;;;;;13.08;100.00;101934.28;6208078;23;20016;-82
2022/07/27 04:53:11;;;;;;;5.93;1.50;;;;;;;13.10;100.00;101931.63;6158745;23;20409;-82
2022/07/27 04:55:44;;;;;;;9.88;2.08;;;;;;;13.12;100.00;101941.38;6245195;23;20442;-83
2022/07/27 04:58:13;;;;;;;4.25;1.95;;;;;;;13.14;100.00;101934.34;6218518;23;20396;-83
2022/07/27 05:00:45;;;;;;;7.28;1.60;;;;;;;13.18;100.00;101938.78;6197863;23;20342;-83
2022/07/27 05:03:14;;;;;;;6.30;1.70;;;;;;;13.23;100.00;101944.09;6181749;23;20142;-82
2022/07/27 05:05:42;;;;;;;3.90;1.33;;;;;;;13.26;100.00;101938.84;6224854;23;20019;-82
2022/07/27 05:08:18;;;;;;;3.30;1.45;;;;;;;13.30;100.00;101943.34;6199045;23;20035;-82
2022/07/27 05:10:47;;;;;;;6.05;1.60;;;;;;;13.38;100.00;101943.41;6215146;23;20016;-82
2022/07/27 05:13:21;;;;;;;6.28;1.58;;;;;;;13.45;100.00;101938.16;6242520;23;20027;-82
2022/07/27 05:15:50;;;;;;;6.65;1.50;;;;;;;13.54;100.00;101939.16;6197874;23;20429;-83
2022/07/27 05:18:24;;;;;;;4.75;1.23;;;;;;;13.61;100.00;101955.09;6189857;23;20141;-82
2022/07/27 05:20:53;;;;;;;6.80;2.00;;;;;;;13.70;100.00;101950.72;6173563;23;20020;-84
2022/07/27 05:23:21;;;;;;;4.55;1.60;;;;;;;13.77;100.00;101950.78;6197459;23;20240;-83
2022/07/27 05:25:49;;;;;;;6.55;1.35;;;;;;;13.85;100.00;101945.53;6165944;23;20023;-86
2022/07/27 05:28:18;;;;;;;5.22;1.60;;;;;;;13.92;100.00;101955.31;6184175;23;20220;-81
2022/07/27 05:30:47;;;;;;;6.13;1.35;;;;;;;13.98;100.00;101951.81;6164338;23;20350;-83
2022/07/27 05:33:15;;;;;;;5.70;1.48;;;;;;;14.04;100.00;101958.06;6181810;23;20277;-83
2022/07/27 05:35:44;;;;;;;5.35;1.50;;;;;;;14.11;100.00;101961.63;6163081;23;20020;-81
2022/07/27 05:38:12;;;;;;;10.02;1.52;;;;;;;14.19;100.00;101962.56;6220353;23;20016;-81
2022/07/27 05:40:45;;;;;;;7.93;1.50;;;;;;;14.32;100.00;101968.81;6223526;23;20017;-82
2022/07/27 05:43:14;;;;;;;3.42;1.33;;;;;;;14.48;100.00;101968.91;6216642;23;20020;-81
2022/07/27 05:45:42;;;;;;;3.40;1.35;;;;;;;14.61;100.00;101970.75;6149180;23;20017;-82
2022/07/27 05:48:11;;;;;;;5.72;1.50;;;;;;;14.75;100.00;101968.19;6202869;23;20027;-82
2022/07/27 05:50:39;;;;;;;2.42;1.33;;;;;;;14.95;100.00;101974.44;6194391;23;20020;-82
2022/07/27 05:53:08;;;;;;;5.55;2.13;;;;;;;15.55;100.00;101965.69;6175501;23;20035;-81
2022/07/27 05:55:36;;;;;;;2.50;1.20;;;;;;;15.87;100.00;101978.13;6221861;23;20028;-80
2022/07/27 05:58:05;;;;;;;7.63;2.03;;;;;;;16.12;100.00;101976.31;6201098;23;20028;-81
2022/07/27 06:00:35;;;;;;;6.03;1.58;;;;;;;16.72;100.00;101987.66;6222588;23;20032;-81
2022/07/27 06:03:03;;;;;;;6.35;1.77;;;;;;;17.25;100.00;101976.75;6118572;23;20029;-80
2022/07/27 06:05:33;;;;;;;5.22;1.52;;;;;;;17.59;100.00;101973.84;6218202;23;20342;-82
2022/07/27 06:08:07;;;;;;;5.35;1.75;;;;;;;17.76;100.00;101973.72;6194112;23;20357;-82
2022/07/27 06:10:40;;;;;;;5.28;1.65;;;;;;;17.84;100.00;101978.09;6185386;23;20024;-82
2022/07/27 06:13:10;;;;;;;4.10;1.65;;;;;;;17.87;100.00;101972.75;6167999;23;20017;-82
2022/07/27 06:15:39;;;;;;;3.40;1.30;;;;;;;17.86;100.00;101973.66;6208394;23;20021;-82
2022/07/27 06:18:16;;;;;;;5.22;1.42;;;;;;;17.82;99.36;101969.19;6145766;23;20450;-82
2022/07/27 06:20:45;;;;;;;3.67;1.48;;;;;;;17.76;99.38;101974.59;6222823;23;20032;-82
2022/07/27 06:23:14;;;;;;;6.03;1.42;;;;;;;17.71;98.60;101979.06;6160010;23;20025;-82
2022/07/27 06:25:42;;;;;;;5.78;1.40;;;;;;;17.71;99.27;101979.06;6214030;23;20021;-81
2022/07/27 06:28:10;;;;;;;5.03;1.60;;;;;;;17.76;98.75;101989.72;6196292;23;20012;-83
2022/07/27 06:30:41;;;;;;;5.60;1.50;;;;;;;17.76;98.09;101985.25;6171787;23;20025;-82
2022/07/27 06:33:16;;;;;;;5.32;1.98;;;;;;;17.73;97.35;101982.59;6166458;23;20021;-82
2022/07/27 06:35:51;;;;;;;10.10;1.70;;;;;;;17.73;97.23;101988.84;6210714;23;20028;-81
2022/07/27 06:38:21;;;;;;;4.68;1.27;;;;;;;17.80;96.74;101989.66;6156593;23;20016;-82
2022/07/27 06:40:53;;;;;;;6.60;1.88;;;;;;;17.87;96.61;101994.06;6225694;23;20422;-82
2022/07/27 06:43:26;;;;;;;7.53;1.45;;;;;;;17.93;95.12;101990.47;6215519;23;20012;-83
2022/07/27 06:45:58;;;;;;;6.38;1.50;;;;;;;17.88;94.25;101987.88;6207983;23;20028;-81
2022/07/27 06:48:26;;;;;;;4.25;1.58;;;;;;;17.90;93.59;101990.50;6178086;23;20025;-81
2022/07/27 06:50:55;;;;;;;6.45;1.70;;;;;;;17.95;92.28;101986.00;6192649;23;20020;-81
2022/07/27 06:53:25;;;;;;;7.97;1.90;;;;;;;18.00;91.54;101991.31;6136316;23;20027;-82
2022/07/27 06:55:54;;;;;;;3.13;1.40;;;;;;;17.96;91.19;102000.22;6211424;23;20031;-83
2022/07/27 06:58:23;;;;;;;4.75;1.85;;;;;;;17.92;90.08;101992.25;6213499;23;20020;-83
2022/07/27 07:00:51;;;;;;;6.72;1.60;;;;;;;17.96;90.10;101992.22;6217620;23;20016;-82
2022/07/27 07:03:19;;;;;;;3.28;1.50;;;;;;;17.97;88.80;101991.31;6209117;23;20353;-82
2022/07/27 07:05:48;;;;;;;4.95;1.55;;;;;;;18.03;88.17;101997.47;6217065;23;20076;-82
2022/07/27 07:08:17;;;;;;;2.00;1.30;;;;;;;18.08;87.00;101994.78;6164189;23;20446;-83
2022/07/27 07:10:46;;;;;;;3.60;1.30;;;;;;;18.11;85.72;102000.09;6169665;23;20021;-82
2022/07/27 07:13:14;;;;;;;4.00;1.20;;;;;;;18.11;85.14;102000.97;6169383;23;20457;-83
2022/07/27 07:15:43;;;;;;;4.05;1.67;;;;;;;18.05;83.55;101997.47;6231470;23;20020;-81
2022/07/27 07:18:11;;;;;;;4.30;1.58;;;;;;;17.94;84.48;102000.25;6181637;23;20023;-82
2022/07/27 07:20:41;;;;;;;3.00;1.35;;;;;;;17.87;84.60;102002.06;6200061;23;20017;-81
2022/07/27 07:23:10;;;;;;;8.73;1.40;;;;;;;17.80;84.67;102013.66;6166149;23;20024;-81
2022/07/27 07:25:39;;;;;;;4.28;1.52;;;;;;;17.73;84.52;102012.84;6207991;23;20021;-82
2022/07/27 07:28:08;;;;;;;5.00;1.52;;;;;;;17.63;84.66;102007.56;6210754;23;20020;-82
2022/07/27 07:30:36;;;;;;;8.15;1.65;;;;;;;17.64;86.02;102006.69;6155673;23;20220;-82
2022/07/27 07:33:05;;;;;;;6.38;1.65;;;;;;;17.68;85.63;102006.66;6214854;23;20358;-82
2022/07/27 07:35:34;;;;;;;6.15;1.40;;;;;;;17.73;85.50;102020.84;6175730;23;20020;-82
2022/07/27 07:38:03;;;;;;;4.93;1.58;;;;;;;17.68;83.90;102011.09;6179622;23;20450;-83
2022/07/27 07:40:33;;;;;;;4.57;1.38;;;;;;;17.65;83.98;102013.78;6207332;23;20027;-82
2022/07/27 07:43:12;;;;;;;6.43;1.50;;;;;;;17.68;83.39;102016.44;6221841;23;20020;-83
2022/07/27 07:45:42;;;;;;;6.10;1.58;;;;;;;17.76;82.84;102019.91;6213798;23;20020;-81
2022/07/27 07:48:20;;;;;;;5.45;1.30;;;;;;;17.83;81.50;102021.63;6182673;23;20350;-84
2022/07/27 07:50:50;;;;;;;4.07;1.45;;;;;;;17.91;81.21;102019.81;6179101;23;20032;-83
2022/07/27 07:53:22;;;;;;;5.25;1.13;;;;;;;17.97;80.58;102028.66;6190396;23;20016;-82
2022/07/27 07:55:52;;;;;;;2.50;1.42;;;;;;;17.98;80.34;102033.13;6195599;23;20017;-83
2022/07/27 07:58:21;;;;;;;5.88;1.55;;;;;;;17.90;79.28;102034.06;6216857;23;20015;-85
2022/07/27 08:01:11;;;;;;;2.20;1.20;;;;;;;17.81;79.66;102030.56;6184562;23;20039;-82
2022/07/27 08:03:39;;;;;;;5.05;1.40;;;;;;;17.75;79.95;102039.47;6188407;23;20242;-83
2022/07/27 08:06:08;;;;;;;2.58;1.30;;;;;;;17.72;79.54;102034.16;6220631;23;20021;-82
2022/07/27 08:08:36;;;;;;;4.88;1.27;;;;;;;17.66;80.38;102048.41;6140538;23;20016;-81
2022/07/27 08:11:05;;;;;;;5.25;1.40;;;;;;;17.57;80.05;102045.81;6171653;23;20021;-82
2022/07/27 08:13:34;;;;;;;3.22;1.00;;;;;;;17.44;79.77;102046.78;6133628;23;20138;-82
2022/07/27 08:16:02;;;;;;;3.20;1.23;;;;;;;17.34;79.79;102052.19;6154211;23;20032;-81
2022/07/27 08:18:31;;;;;;;3.65;1.48;;;;;;;17.24;79.11;102042.47;6179735;23;20126;-82
2022/07/27 08:21:00;;;;;;;3.47;1.30;;;;;;;17.22;79.09;102048.69;6185225;23;20025;-81
2022/07/27 08:23:30;;;;;;;2.35;1.17;;;;;;;17.21;79.32;102047.81;6159783;23;20044;-83
2022/07/27 08:26:02;;;;;;;2.60;1.35;;;;;;;17.27;78.91;102052.22;6209622;23;20024;-83
2022/07/27 08:28:35;;;;;;;4.75;1.30;;;;;;;17.33;77.30;102052.19;6216906;23;20021;-82
2022/07/27 08:31:04;;;;;;;1.88;0.82;;;;;;;17.39;75.66;102049.50;6219322;23;20016;-83
2022/07/27 08:33:44;;;;;;;1.17;1.03;;;;;;;17.45;75.60;102052.13;6192949;23;20012;-83
2022/07/27 08:36:12;;;;;;;2.40;1.10;;;;;;;17.56;75.88;102065.38;6163314;23;20449;-83
2022/07/27 08:38:43;;;;;;;4.80;1.35;;;;;;;17.64;75.48;102054.66;6159475;23;20119;-83
2022/07/27 08:41:14;;;;;;;3.67;1.23;;;;;;;17.71;75.04;102048.38;6203134;23;20021;-83
2022/07/27 08:43:44;;;;;;;2.38;1.17;;;;;;;17.81;74.81;102057.22;6191053;23;20112;-82
2022/07/27 08:46:16;;;;;;;3.40;1.13;;;;;;;17.91;73.49;102057.16;6157212;23;20021;-82
2022/07/27 08:48:45;;;;;;;4.53;1.17;;;;;;;17.97;72.20;102053.53;6205719;23;20016;-83
2022/07/27 08:51:14;;;;;;;2.83;1.10;;;;;;;17.97;71.26;102050.00;6187568;23;20020;-82
2022/07/27 08:53:43;;;;;;;2.83;0.80;;;;;;;17.99;70.74;102048.19;6191848;23;20178;-82
2022/07/27 08:56:24;;;;;;;2.97;0.90;;;;;;;18.10;70.59;102049.00;6132662;23;20036;-82
2022/07/27 08:59:14;;;;;;;2.47;1.00;;;;;;;18.31;69.86;102061.25;6167747;23;20028;-81
2022/07/27 09:01:43;;;;;;;1.60;0.80;;;;;;;18.33;68.19;102058.56;6216179;23;20209;-83
2022/07/27 09:04:12;;;;;;;4.57;1.20;;;;;;;18.37;69.25;102065.63;6162454;23;20025;-82
2022/07/27 09:06:50;;;;;;;5.35;1.20;;;;;;;18.44;68.11;102054.00;6164235;23;20499;-82
2022/07/27 09:09:21;;;;;;;1.23;1.13;;;;;;;18.38;66.90;102056.75;6146434;23;20016;-83
2022/07/27 09:12:10;;;;;;;5.57;1.80;;;;;;;18.33;64.64;102062.09;6126113;23;20024;-82
2022/07/27 09:14:41;;;;;;;1.38;1.00;;;;;;;18.36;66.78;102061.22;6216056;23;20315;-83
2022/07/27 09:17:27;;;;;;;1.00;0.80;;;;;;;18.39;67.27;102058.50;6194253;23;20477;-83
2022/07/27 09:20:18;;;;;;;2.70;0.80;;;;;;;18.50;66.88;102051.25;6192215;23;20023;-83
2022/07/27 09:22:54;;;;;;;3.22;1.13;;;;;;;18.58;66.78;102053.84;6218539;23;20393;-83
2022/07/27 09:25:24;;;;;;;2.33;0.82;;;;;;;18.70;68.04;102057.28;6199526;23;20032;-85
2022/07/27 09:28:13;;;;;;;2.70;0.93;;;;;;;18.83;66.98;102046.50;6214350;23;20021;-80
2022/07/27 09:30:42;;;;;;;2.47;1.27;;;;;;;18.88;66.44;102050.88;6180883;23;20016;-82
2022/07/27 09:33:14;;;;;;;2.03;0.85;;;;;;;18.92;65.72;102053.50;6218287;23;20488;-82
2022/07/27 09:35:45;;;;;;;2.78;0.90;;;;;;;19.01;65.62;102056.06;6206416;23;20297;-83
2022/07/27 09:38:20;;;;;;;1.67;0.63;;;;;;;19.01;63.91;102070.28;6169433;23;20020;-82
2022/07/27 09:41:03;;;;;;;3.13;1.00;;;;;;;19.06;63.53;102060.44;6188733;23;20209;-82
2022/07/27 09:43:45;;;;;;;3.38;0.90;;;;;;;19.17;64.00;102060.31;6212894;23;20025;-83
2022/07/27 09:46:39;;;;;;;4.13;1.10;;;;;;;19.28;65.38;102065.47;6179923;23;20035;-82
2022/07/27 09:49:28;;;;;;;4.35;1.02;;;;;;;19.32;61.50;102064.56;6216734;23;20044;-82
2022/07/27 09:51:58;;;;;;;2.65;1.05;;;;;;;19.25;63.44;102069.09;6178352;23;20443;-81
2022/07/27 09:54:42;;;;;;;2.72;0.90;;;;;;;19.16;61.37;102065.66;6196989;23;20032;-82
2022/07/27 09:57:10;;;;;;;3.35;0.95;;;;;;;19.18;64.56;102067.38;6202551;23;20405;-83
2022/07/27 09:59:39;;;;;;;4.10;1.00;;;;;;;19.23;65.02;102062.88;6169200;23;20020;-82
2022/07/27 10:02:07;;;;;;;1.10;0.68;;;;;;;19.29;64.41;102059.25;6189014;23;20028;-83
2022/07/27 10:04:36;;;;;;;1.17;0.77;;;;;;;19.32;64.39;102063.66;6194687;23;20031;-80
2022/07/27 10:07:07;;;;;;;6.28;1.45;;;;;;;19.33;63.90;102070.78;6207312;23;20024;-82
2022/07/27 10:09:41;;;;;;;2.15;0.93;;;;;;;19.34;63.87;102067.19;6170730;23;20021;-82
2022/07/27 10:12:09;;;;;;;3.67;1.00;;;;;;;19.42;63.97;102071.53;6167007;23;20241;-82
2022/07/27 10:14:40;;;;;;;3.70;1.00;;;;;;;19.43;63.84;102070.63;6161014;23;20358;-83
2022/07/27 10:17:13;;;;;;;1.58;0.82;;;;;;;19.40;63.43;102078.69;6157759;23;20536;-83
2022/07/27 10:19:48;;;;;;;3.25;1.08;;;;;;;19.33;63.07;102077.00;6186835;23;20015;-84
2022/07/27 10:22:54;;;;;;;2.67;1.08;;;;;;;19.32;61.83;102077.00;6190597;23;20231;-83
2022/07/27 10:25:24;;;;;;;3.03;1.58;;;;;;;19.36;64.49;102079.63;6174574;23;20028;-82
2022/07/27 10:28:16;;;;;;;5.20;1.30;;;;;;;19.42;63.11;102071.53;6090854;23;20457;-83
2022/07/27 10:30:46;;;;;;;1.25;0.88;;;;;;;19.41;64.47;102067.09;6218345;23;20020;-83
2022/07/27 10:33:41;;;;;;;1.40;1.00;;;;;;;19.44;63.55;102076.84;6160410;23;20024;-81
2022/07/27 10:36:15;;;;;;;3.58;1.10;;;;;;;19.40;64.38;102064.44;6191932;23;20053;-82
2022/07/27 10:38:47;;;;;;;2.47;1.17;;;;;;;19.44;64.33;102077.72;6184539;23;20048;-83
2022/07/27 10:41:45;;;;;;;4.53;0.90;;;;;;;19.42;64.11;102065.31;6159777;23;20297;-82
2022/07/27 10:44:15;;;;;;;3.03;1.33;;;;;;;19.44;64.77;102064.38;6145360;23;20025;-82
2022/07/27 10:47:02;;;;;;;2.13;1.00;;;;;;;19.63;64.12;102064.97;6244128;23;20043;-82
2022/07/27 10:49:34;;;;;;;1.73;1.00;;;;;;;19.84;63.84;102062.91;6207867;23;20023;-83
2022/07/27 10:52:43;;;;;;;2.08;1.13;;;;;;;19.94;63.14;102071.66;6187618;23;20490;-82
2022/07/27 10:55:30;;;;;;;4.72;1.20;;;;;;;19.87;61.05;102070.91;6208674;23;20028;-83
2022/07/27 10:58:01;;;;;;;4.07;1.00;;;;;;;19.71;63.74;102064.84;6187392;23;20331;-82
2022/07/27 11:00:48;;;;;;;5.22;1.10;;;;;;;19.56;61.65;102073.13;6186806;23;20053;-81
2022/07/27 11:03:25;;;;;;;3.78;1.42;;;;;;;19.41;64.44;102076.88;6186861;23;20043;-82
2022/07/27 11:05:54;;;;;;;3.92;1.15;;;;;;;19.27;64.81;102079.75;6212698;23;20020;-82
2022/07/27 11:08:42;;;;;;;2.67;1.05;;;;;;;19.18;65.46;102072.75;6216842;23;20020;-83
2022/07/27 11:11:22;;;;;;;3.00;1.42;;;;;;;19.14;65.36;102076.34;6209383;23;20342;-81
2022/07/27 11:13:57;;;;;;;3.20;1.27;;;;;;;19.03;66.10;102076.47;6168992;23;20028;-81
2022/07/27 11:16:27;;;;;;;7.85;1.48;;;;;;;18.99;67.41;102085.44;6195288;23;20597;-83
2022/07/27 11:19:05;;;;;;;3.10;1.02;;;;;;;19.04;67.01;102078.28;6217482;23;20630;-83
2022/07/27 11:21:36;;;;;;;2.55;1.10;;;;;;;19.19;67.37;102079.88;6169446;23;20024;-82
2022/07/27 11:24:12;;;;;;;;;;;;;;;19.42;67.60;102082.22;6212664;23;20155;-79
2022/07/27 11:26:46;;;;;;;4.75;1.30;;;;;;;19.51;65.74;102073.19;6210981;23;19916;-82
2022/07/27 11:29:17;;;;;;;2.80;1.15;;;;;;;19.46;65.83;102078.59;6222771;23;20034;-80
2022/07/27 11:31:50;;;;;;;4.10;1.08;;;;;;;19.37;66.47;102077.84;6177086;23;20016;-83
2022/07/27 11:34:30;;;;;;;4.35;1.30;;;;;;;19.33;67.83;102084.13;6150731;23;20020;-81
2022/07/27 11:37:01;;;;;;;3.60;1.30;;;;;;;19.28;68.06;102082.41;6188012;23;20013;-81
2022/07/27 11:39:33;;;;;;;2.53;1.05;;;;;;;19.25;68.25;102085.13;6183794;23;20254;-82
2022/07/27 11:42:22;;;;;;;4.70;1.23;;;;;;;19.23;70.02;102075.38;6202970;23;20047;-83
2022/07/27 11:44:51;;;;;;;4.57;1.33;;;;;;;19.21;70.51;102083.41;6199828;23;20043;-82